createdAt,value
2022-12-18T00:01:06.882Z,71.20
2022-12-18T00:02:38.818Z,81.20
2022-12-18T00:04:26.833Z,72.60
2022-12-18T00:05:58.641Z,80.40
2022-12-18T00:07:30.477Z,80.30
2022-12-18T00:09:04.896Z,81.50
2022-12-18T00:10:36.718Z,77.40
2022-12-18T00:13:49.760Z,79.20
2022-12-18T00:15:24.486Z,76.80
2022-12-18T00:16:59.418Z,81.30
2022-12-18T00:18:39.479Z,81.30
2022-12-18T00:20:13.728Z,84.60
2022-12-18T00:21:46.505Z,79.50
2022-12-18T00:23:18.664Z,84.10
2022-12-18T00:24:50.428Z,85.40
2022-12-18T00:26:33.602Z,79.10
2022-12-18T00:28:09.305Z,81.00
2022-12-18T00:29:41.228Z,82.70
2022-12-18T00:31:18.675Z,83.30
2022-12-18T00:32:51.342Z,76.50
2022-12-18T00:34:24.568Z,81.40
2022-12-18T00:36:12.126Z,79.60
2022-12-18T00:37:44.952Z,67.10
2022-12-18T00:39:17.631Z,49.10
2022-12-18T00:40:50.476Z,70.40
2022-12-18T00:42:40.955Z,69.00
2022-12-18T00:44:18.112Z,74.70
2022-12-18T00:45:53.720Z,78.70
2022-12-18T00:47:25.624Z,79.80
2022-12-18T00:48:58.083Z,78.80
2022-12-18T00:50:29.918Z,79.10
2022-12-18T00:52:01.800Z,71.80
2022-12-18T00:53:33.626Z,76.60
2022-12-18T00:55:06.818Z,86.70
2022-12-18T00:56:49.591Z,77.10
2022-12-18T00:58:21.841Z,72.40
2022-12-18T00:59:53.626Z,79.00
2022-12-18T01:01:25.622Z,80.20
2022-12-18T01:02:58.028Z,78.00
2022-12-18T01:04:34.125Z,80.20
2022-12-18T01:06:13.098Z,74.40
2022-12-18T01:07:45.782Z,66.30
2022-12-18T01:09:17.903Z,68.70
2022-12-18T01:10:50.178Z,65.90
2022-12-18T01:12:22.080Z,34.90
2022-12-18T01:13:56.733Z,66.60
2022-12-18T01:15:28.586Z,72.10
2022-12-18T01:17:00.641Z,57.00
2022-12-18T01:18:32.744Z,56.80
2022-12-18T01:20:06.056Z,64.60
2022-12-18T01:21:39.312Z,67.50
2022-12-18T01:23:11.076Z,67.50
2022-12-18T01:24:42.836Z,64.40
2022-12-18T01:26:19.713Z,72.40
2022-12-18T01:27:57.318Z,70.30
2022-12-18T01:29:32.349Z,56.10
2022-12-18T01:31:33.429Z,55.40
2022-12-18T01:33:08.781Z,68.60
2022-12-18T01:34:40.982Z,65.30
2022-12-18T01:36:26.833Z,63.80
2022-12-18T01:37:58.723Z,70.70
2022-12-18T01:39:34.031Z,76.70
2022-12-18T01:41:06.558Z,68.90
2022-12-18T01:42:38.579Z,62.70
2022-12-18T01:45:05.823Z,65.60
2022-12-18T01:46:37.884Z,66.00
2022-12-18T01:48:10.472Z,61.50
2022-12-18T01:49:44.011Z,69.10
2022-12-18T01:51:16.940Z,67.90
2022-12-18T01:52:56.133Z,65.90
2022-12-18T01:54:29.870Z,67.40
2022-12-18T01:56:02.160Z,62.80
2022-12-18T01:57:34.663Z,68.20
2022-12-18T01:59:11.145Z,63.90
2022-12-18T02:00:43.263Z,67.30
2022-12-18T02:02:17.864Z,65.30
2022-12-18T02:03:50.624Z,61.90
2022-12-18T02:05:56.585Z,62.80
2022-12-18T02:07:53.180Z,63.20
2022-12-18T02:09:35.562Z,61.20
2022-12-18T02:11:07.981Z,60.70
2022-12-18T02:12:57.485Z,64.80
2022-12-18T02:14:40.125Z,59.20
2022-12-18T02:16:55.873Z,63.00
2022-12-18T02:18:37.362Z,58.80
2022-12-18T02:20:22.811Z,65.10
2022-12-18T02:22:40.374Z,62.20
2022-12-18T02:24:17.907Z,63.90
2022-12-18T02:26:11.648Z,58.30
2022-12-18T02:27:47.923Z,70.80
2022-12-18T02:29:31.860Z,59.10
2022-12-18T02:31:10.628Z,64.40
2022-12-18T02:32:50.712Z,60.40
2022-12-18T02:34:29.918Z,58.60
2022-12-18T02:36:09.131Z,58.20
2022-12-18T02:37:47.939Z,63.70
2022-12-18T02:39:23.081Z,64.10
2022-12-18T02:41:05.241Z,67.70
2022-12-18T02:42:37.137Z,63.60
2022-12-18T02:44:14.521Z,60.10
2022-12-18T02:46:02.108Z,62.80
2022-12-18T02:47:44.643Z,61.80
2022-12-18T02:49:40.616Z,66.00
2022-12-18T02:51:52.758Z,56.40
2022-12-18T02:53:31.686Z,55.40
2022-12-18T02:55:24.218Z,61.50
2022-12-18T02:57:17.800Z,64.70
2022-12-18T02:59:07.569Z,62.80
2022-12-18T03:01:27.813Z,63.10
2022-12-18T03:03:34.373Z,70.40
2022-12-18T03:05:14.859Z,59.30
2022-12-18T03:06:56.410Z,65.10
2022-12-18T03:08:42.914Z,63.60
2022-12-18T03:10:22.857Z,64.40
2022-12-18T03:12:21.688Z,68.80
2022-12-18T03:13:59.513Z,61.70
2022-12-18T03:15:49.100Z,57.70
2022-12-18T03:17:28.844Z,62.50
2022-12-18T03:19:07.694Z,58.90
2022-12-18T03:20:44.536Z,62.10
2022-12-18T03:22:19.660Z,77.60
2022-12-18T03:23:56.173Z,96.90
2022-12-18T03:25:31.530Z,113.40
2022-12-18T03:27:08.942Z,111.00
2022-12-18T03:28:51.884Z,112.20
2022-12-18T03:30:24.330Z,112.50
2022-12-18T03:32:12.683Z,99.10
2022-12-18T03:34:03.225Z,87.30
2022-12-18T03:35:45.864Z,71.30
2022-12-18T03:37:18.081Z,85.90
2022-12-18T03:38:51.294Z,69.00
2022-12-18T03:40:37.841Z,58.50
2022-12-18T03:42:23.034Z,61.90
2022-12-18T03:44:26.984Z,61.30
2022-12-18T03:46:30.415Z,55.60
2022-12-18T03:48:21.466Z,55.30
2022-12-18T03:50:06.128Z,52.40
2022-12-18T03:51:50.799Z,52.60
2022-12-18T03:53:52.107Z,50.70
2022-12-18T03:55:29.885Z,50.20
2022-12-18T03:57:24.655Z,47.50
2022-12-18T03:59:01.939Z,49.80
2022-12-18T04:00:35.978Z,53.20
2022-12-18T04:02:12.332Z,48.00
2022-12-18T04:03:50.683Z,53.00
2022-12-18T04:05:27.039Z,48.30
2022-12-18T04:07:00.298Z,47.20
2022-12-18T04:08:35.965Z,46.20
2022-12-18T04:10:12.787Z,50.90
2022-12-18T04:11:47.762Z,49.50
2022-12-18T04:13:35.266Z,48.50
2022-12-18T04:15:10.298Z,53.20
2022-12-18T04:16:42.298Z,46.40
2022-12-18T04:18:16.022Z,44.90
2022-12-18T04:19:48.186Z,46.30
2022-12-18T04:21:21.329Z,45.90
2022-12-18T04:22:53.943Z,46.50
2022-12-18T04:24:26.569Z,50.60
2022-12-18T04:26:09.489Z,44.20
2022-12-18T04:27:48.800Z,46.70
2022-12-18T04:29:20.691Z,49.70
2022-12-18T04:31:04.898Z,44.30
2022-12-18T04:32:37.243Z,45.40
2022-12-18T04:34:10.818Z,46.00
2022-12-18T04:35:47.290Z,47.80
2022-12-18T04:37:19.370Z,45.10
2022-12-18T04:38:53.215Z,49.10
2022-12-18T04:40:25.850Z,48.20
2022-12-18T04:41:57.858Z,47.00
2022-12-18T04:43:33.932Z,50.70
2022-12-18T04:45:06.737Z,48.20
2022-12-18T04:46:38.638Z,53.30
2022-12-18T04:48:10.505Z,51.20
2022-12-18T04:49:42.838Z,51.70
2022-12-18T04:51:15.068Z,49.30
2022-12-18T04:52:46.932Z,46.90
2022-12-18T04:54:19.089Z,47.70
2022-12-18T04:55:51.140Z,43.70
2022-12-18T04:57:22.998Z,43.90
2022-12-18T04:58:54.778Z,43.30
2022-12-18T05:00:27.120Z,52.20
2022-12-18T05:01:59.618Z,42.90
2022-12-18T05:03:31.853Z,41.00
2022-12-18T05:05:05.746Z,42.50
2022-12-18T05:06:37.966Z,43.00
2022-12-18T05:08:09.768Z,39.20
2022-12-18T05:09:42.768Z,44.70
2022-12-18T05:11:19.598Z,39.90
2022-12-18T05:13:01.268Z,39.90
2022-12-18T05:14:33.982Z,40.70
2022-12-18T05:16:06.754Z,40.70
2022-12-18T05:17:38.796Z,41.50
2022-12-18T05:19:10.677Z,42.00
2022-12-18T05:20:43.079Z,41.50
2022-12-18T05:22:15.094Z,46.70
2022-12-18T05:23:47.146Z,45.30
2022-12-18T05:25:19.777Z,43.90
2022-12-18T05:26:52.871Z,39.70
2022-12-18T05:28:27.080Z,43.80
2022-12-18T05:29:58.836Z,47.00
2022-12-18T05:31:34.566Z,44.90
2022-12-18T05:33:09.405Z,42.00
2022-12-18T05:34:45.788Z,44.20
2022-12-18T05:36:19.179Z,44.10
2022-12-18T05:37:54.153Z,43.30
2022-12-18T05:39:26.433Z,45.80
2022-12-18T05:41:00.680Z,41.20
2022-12-18T05:42:32.660Z,45.80
2022-12-18T05:44:04.709Z,42.00
2022-12-18T05:45:39.649Z,41.00
2022-12-18T05:47:11.533Z,46.20
2022-12-18T05:48:45.358Z,41.90
2022-12-18T05:50:17.194Z,42.50
2022-12-18T05:51:49.309Z,44.00
2022-12-18T05:53:22.129Z,43.10
2022-12-18T05:54:53.982Z,40.20
2022-12-18T05:56:26.084Z,41.10
2022-12-18T05:57:57.971Z,43.90
2022-12-18T05:59:31.686Z,39.00
2022-12-18T06:01:21.527Z,38.60
2022-12-18T06:02:53.646Z,46.00
2022-12-18T06:04:30.768Z,45.70
2022-12-18T06:06:02.880Z,45.00
2022-12-18T06:07:34.943Z,42.10
2022-12-18T06:09:09.362Z,43.60
2022-12-18T06:10:43.156Z,44.60
2022-12-18T06:12:15.005Z,44.70
2022-12-18T06:13:53.512Z,49.10
2022-12-18T06:15:29.426Z,47.70
2022-12-18T06:17:01.354Z,45.40
2022-12-18T06:18:33.530Z,45.90
2022-12-18T06:20:07.254Z,45.90
2022-12-18T06:21:39.052Z,40.80
2022-12-18T06:23:10.934Z,45.30
2022-12-18T06:24:43.155Z,47.40
2022-12-18T06:26:15.149Z,39.60
2022-12-18T06:27:49.025Z,43.70
2022-12-18T06:29:21.018Z,41.50
2022-12-18T06:30:54.110Z,41.10
2022-12-18T06:32:28.472Z,41.70
2022-12-18T06:34:04.465Z,40.50
2022-12-18T06:35:40.317Z,39.10
2022-12-18T06:37:12.144Z,38.10
2022-12-18T06:38:45.559Z,39.30
2022-12-18T06:40:17.892Z,38.90
2022-12-18T06:41:49.773Z,40.50
2022-12-18T06:43:22.761Z,38.60
2022-12-18T06:44:56.029Z,37.30
2022-12-18T06:46:28.626Z,41.50
2022-12-18T06:48:01.105Z,36.80
2022-12-18T06:49:33.055Z,36.00
2022-12-18T06:51:07.046Z,42.10
2022-12-18T06:52:40.086Z,46.70
2022-12-18T06:54:12.345Z,40.90
2022-12-18T06:55:45.030Z,41.70
2022-12-18T06:57:17.717Z,39.50
2022-12-18T06:58:51.127Z,44.00
2022-12-18T07:00:22.998Z,46.90
2022-12-18T07:01:55.032Z,42.40
2022-12-18T07:03:27.462Z,41.90
2022-12-18T07:04:59.762Z,43.00
2022-12-18T07:06:36.013Z,39.20
2022-12-18T07:08:08.670Z,38.10
2022-12-18T07:09:42.141Z,36.10
2022-12-18T07:11:15.143Z,39.50
2022-12-18T07:12:47.281Z,39.50
2022-12-18T07:14:19.200Z,39.70
2022-12-18T07:15:51.534Z,39.10
2022-12-18T07:17:23.521Z,39.60
2022-12-18T07:18:57.494Z,37.90
2022-12-18T07:20:29.385Z,42.20
2022-12-18T07:22:02.495Z,42.90
2022-12-18T07:23:37.770Z,39.80
2022-12-18T07:25:10.169Z,39.20
2022-12-18T07:26:42.046Z,42.20
2022-12-18T07:28:17.597Z,42.40
2022-12-18T07:29:50.151Z,42.40
2022-12-18T07:31:25.921Z,42.60
2022-12-18T07:32:57.955Z,41.50
2022-12-18T07:34:29.813Z,36.50
2022-12-18T07:36:04.625Z,42.80
2022-12-18T07:37:38.519Z,40.50
2022-12-18T07:39:13.892Z,39.00
2022-12-18T07:40:50.183Z,36.10
2022-12-18T07:42:35.920Z,35.70
2022-12-18T07:44:12.016Z,40.20
2022-12-18T07:45:45.855Z,38.90
2022-12-18T07:47:18.504Z,38.30
2022-12-18T07:48:51.149Z,44.00
2022-12-18T07:50:23.591Z,40.80
2022-12-18T07:52:00.861Z,38.20
2022-12-18T07:53:39.011Z,34.50
2022-12-18T07:55:16.671Z,35.00
2022-12-18T07:56:48.634Z,37.00
2022-12-18T07:58:20.518Z,39.60
2022-12-18T07:59:52.223Z,37.70
2022-12-18T08:01:24.438Z,38.90
2022-12-18T08:02:56.576Z,35.70
2022-12-18T08:04:28.592Z,37.60
2022-12-18T08:06:02.769Z,33.60
2022-12-18T08:07:34.492Z,35.10
2022-12-18T08:09:06.596Z,40.00
2022-12-18T08:10:40.232Z,39.90
2022-12-18T08:12:11.997Z,34.00
2022-12-18T08:13:43.865Z,36.30
2022-12-18T08:15:15.823Z,38.20
2022-12-18T08:16:47.760Z,36.50
2022-12-18T08:18:19.613Z,35.30
2022-12-18T08:19:51.317Z,33.80
2022-12-18T08:21:30.735Z,34.20
2022-12-18T08:23:02.481Z,32.50
2022-12-18T08:24:34.211Z,36.30
2022-12-18T08:26:06.641Z,32.70
2022-12-18T08:27:38.424Z,38.60
2022-12-18T08:29:11.715Z,37.40
2022-12-18T08:30:43.544Z,34.40
2022-12-18T08:32:15.713Z,40.80
2022-12-18T08:33:50.890Z,41.90
2022-12-18T08:35:22.618Z,38.50
2022-12-18T08:36:54.366Z,38.20
2022-12-18T08:38:26.315Z,45.10
2022-12-18T08:39:58.089Z,31.70
2022-12-18T08:41:29.838Z,34.60
2022-12-18T08:43:20.988Z,37.80
2022-12-18T08:44:52.815Z,35.50
2022-12-18T08:46:27.973Z,37.30
2022-12-18T08:47:59.833Z,36.20
2022-12-18T08:49:34.695Z,39.10
2022-12-18T08:51:06.657Z,42.30
2022-12-18T08:52:38.493Z,41.90
2022-12-18T08:54:14.771Z,34.90
2022-12-18T08:55:50.181Z,33.10
2022-12-18T08:57:22.236Z,31.40
2022-12-18T08:58:55.773Z,34.10
2022-12-18T09:00:27.993Z,31.00
2022-12-18T09:02:00.086Z,33.10
2022-12-18T09:03:32.037Z,37.30
2022-12-18T09:05:04.598Z,33.30
2022-12-18T09:06:38.573Z,37.10
2022-12-18T09:08:11.806Z,33.20
2022-12-18T09:09:43.748Z,35.30
2022-12-18T09:11:21.584Z,39.30
2022-12-18T09:12:53.353Z,32.20
2022-12-18T09:14:25.762Z,32.90
2022-12-18T09:15:57.953Z,34.70
2022-12-18T09:17:29.931Z,34.00
2022-12-18T09:19:05.545Z,35.00
2022-12-18T09:20:38.666Z,33.80
2022-12-18T09:22:10.784Z,35.60
2022-12-18T09:23:43.396Z,33.30
2022-12-18T09:25:17.089Z,33.20
2022-12-18T09:26:49.383Z,30.60
2022-12-18T09:28:23.071Z,33.50
2022-12-18T09:29:54.823Z,33.40
2022-12-18T09:31:26.637Z,31.70
2022-12-18T09:32:58.345Z,32.00
2022-12-18T09:34:30.066Z,32.80
2022-12-18T09:36:04.937Z,32.10
2022-12-18T09:37:36.655Z,32.50
2022-12-18T09:39:09.177Z,32.80
2022-12-18T09:54:05.622Z,29.60
2022-12-18T09:55:47.684Z,27.10
2022-12-18T09:57:27.937Z,28.30
2022-12-18T09:59:03.022Z,27.00
2022-12-18T10:00:35.725Z,28.60
2022-12-18T10:02:26.314Z,28.20
2022-12-18T10:03:59.637Z,29.10
2022-12-18T10:06:02.734Z,31.00
2022-12-18T10:08:03.179Z,27.80
2022-12-18T10:09:58.842Z,28.80
2022-12-18T10:12:04.581Z,27.50
2022-12-18T10:14:10.913Z,28.50
2022-12-18T10:16:04.239Z,25.90
2022-12-18T10:17:44.987Z,26.90
2022-12-18T10:19:32.197Z,32.50
2022-12-18T10:21:16.619Z,29.10
2022-12-18T10:23:50.243Z,29.70
2022-12-18T10:25:38.379Z,29.70
2022-12-18T10:27:26.761Z,24.00
2022-12-18T10:29:05.312Z,26.40
2022-12-18T10:30:40.654Z,27.10
2022-12-18T10:32:42.228Z,25.20
2022-12-18T10:34:14.649Z,27.70
2022-12-18T10:35:51.641Z,28.80
2022-12-18T10:37:28.121Z,27.50
2022-12-18T10:39:39.013Z,29.20
2022-12-18T10:41:24.483Z,27.50
2022-12-18T10:43:39.860Z,28.00
2022-12-18T10:45:21.118Z,30.20
2022-12-18T10:47:11.654Z,26.00
2022-12-18T10:48:49.589Z,26.30
2022-12-18T10:51:09.220Z,26.90
2022-12-18T10:52:29.728Z,25.10
2022-12-18T10:54:24.121Z,23.50
2022-12-18T10:56:03.237Z,26.00
2022-12-18T10:57:38.373Z,28.50
2022-12-18T10:59:16.054Z,24.60
2022-12-18T11:01:17.915Z,25.80
2022-12-18T11:02:50.985Z,26.00
2022-12-18T11:04:30.016Z,25.50
2022-12-18T11:06:25.744Z,26.80
2022-12-18T11:08:00.683Z,23.30
2022-12-18T11:09:36.648Z,23.50
2022-12-18T11:11:29.841Z,21.30
2022-12-18T11:13:26.058Z,25.70
2022-12-18T11:15:00.987Z,23.40
2022-12-18T11:17:03.180Z,20.10
2022-12-18T11:18:37.655Z,23.40
2022-12-18T11:20:35.654Z,21.00
2022-12-18T11:22:27.861Z,26.90
2022-12-18T11:24:02.239Z,25.10
2022-12-18T11:25:36.133Z,24.90
2022-12-18T11:27:20.745Z,22.80
2022-12-18T11:29:10.350Z,20.90
2022-12-18T11:30:42.460Z,20.10
2022-12-18T11:32:16.289Z,19.50
2022-12-18T11:34:29.025Z,22.60
2022-12-18T11:36:05.739Z,22.10
2022-12-18T11:37:42.930Z,25.70
2022-12-18T11:39:50.345Z,23.70
2022-12-18T11:41:54.046Z,24.50
2022-12-18T11:44:03.397Z,25.70
2022-12-18T11:45:55.236Z,23.40
2022-12-18T11:47:42.703Z,23.90
2022-12-18T11:49:30.878Z,22.40
2022-12-18T11:51:16.971Z,22.30
2022-12-18T11:52:54.409Z,21.10
2022-12-18T11:54:30.179Z,25.40
2022-12-18T11:57:04.892Z,19.90
2022-12-18T11:58:48.350Z,22.00
2022-12-18T12:00:22.250Z,21.20
2022-12-18T12:02:41.231Z,21.70
2022-12-18T12:04:38.978Z,21.30
2022-12-18T12:06:30.114Z,18.50
2022-12-18T12:08:24.138Z,22.40
2022-12-18T12:10:25.059Z,20.50
2022-12-18T12:12:18.272Z,16.70
2022-12-18T12:14:02.374Z,18.60
2022-12-18T12:16:02.438Z,18.10
2022-12-18T12:18:00.506Z,16.50
2022-12-18T12:19:41.188Z,16.60
2022-12-18T12:21:43.721Z,16.20
2022-12-18T12:23:50.853Z,18.00
2022-12-18T12:25:45.458Z,15.70
2022-12-18T12:27:44.901Z,17.80
2022-12-18T12:29:41.945Z,15.80
2022-12-18T12:31:46.274Z,19.40
2022-12-18T12:33:51.619Z,17.50
2022-12-18T12:36:11.872Z,18.10
2022-12-18T12:37:55.246Z,16.70
2022-12-18T12:39:43.656Z,16.70
2022-12-18T12:41:42.833Z,18.30
2022-12-18T12:43:47.876Z,18.70
2022-12-18T12:45:41.189Z,18.70
2022-12-18T12:47:43.032Z,17.00
2022-12-18T12:49:22.088Z,16.40
2022-12-18T12:50:57.260Z,17.20
2022-12-18T12:52:37.099Z,13.30
2022-12-18T12:54:36.641Z,14.20
2022-12-18T12:56:14.200Z,14.40
2022-12-18T12:58:16.233Z,14.60
2022-12-18T13:00:12.871Z,17.10
2022-12-18T13:02:16.038Z,16.80
2022-12-18T13:04:07.303Z,17.80
2022-12-18T13:05:53.826Z,16.90
2022-12-18T13:07:47.172Z,17.80
2022-12-18T13:09:19.100Z,15.90
2022-12-18T13:11:13.976Z,17.40
2022-12-18T13:13:17.121Z,14.00
2022-12-18T13:15:14.095Z,16.90
2022-12-18T13:16:46.074Z,15.50
2022-12-18T13:18:26.463Z,17.30
2022-12-18T13:20:12.206Z,19.10
2022-12-18T13:21:55.715Z,18.10
2022-12-18T13:23:34.072Z,16.80
2022-12-18T13:25:35.470Z,18.10
2022-12-18T13:28:04.715Z,18.10
2022-12-18T13:29:45.452Z,19.80
2022-12-18T13:31:42.623Z,16.90
2022-12-18T13:33:15.273Z,14.90
2022-12-18T13:34:47.604Z,13.80
2022-12-18T13:36:36.231Z,15.30
2022-12-18T13:38:27.315Z,16.00
2022-12-18T13:39:59.223Z,16.00
2022-12-18T13:41:31.418Z,15.40
2022-12-18T13:43:21.224Z,17.50
2022-12-18T13:44:53.175Z,16.50
2022-12-18T13:46:43.751Z,18.00
2022-12-18T13:48:23.947Z,17.70
2022-12-18T13:49:58.095Z,17.00
2022-12-18T13:51:35.709Z,17.20
2022-12-18T13:53:08.207Z,19.30
2022-12-18T13:54:48.998Z,20.30
2022-12-18T13:56:33.159Z,18.00
2022-12-18T13:58:07.336Z,21.40
2022-12-18T13:59:41.003Z,19.30
2022-12-18T14:01:25.476Z,17.60
2022-12-18T14:03:00.435Z,18.00
2022-12-18T14:04:36.706Z,19.60
2022-12-18T14:06:10.285Z,16.40
2022-12-18T14:07:45.151Z,19.00
2022-12-18T14:09:31.033Z,18.30
2022-12-18T14:11:08.300Z,18.10
2022-12-18T14:13:00.708Z,16.80
2022-12-18T14:14:35.729Z,19.00
2022-12-18T14:16:09.428Z,18.80
2022-12-18T14:17:41.881Z,15.70
2022-12-18T14:19:18.727Z,17.60
2022-12-18T14:20:54.902Z,17.50
2022-12-18T14:22:30.515Z,17.90
2022-12-18T14:24:23.954Z,19.00
2022-12-18T14:25:58.616Z,18.00
2022-12-18T14:27:40.156Z,18.60
2022-12-18T14:29:29.599Z,18.30
2022-12-18T14:31:01.631Z,18.90
2022-12-18T14:32:33.554Z,17.80
2022-12-18T14:34:05.566Z,19.90
2022-12-18T14:35:41.780Z,18.60
2022-12-18T14:37:18.216Z,21.90
2022-12-18T14:38:54.948Z,18.80
2022-12-18T14:40:27.096Z,18.30
2022-12-18T14:41:58.972Z,20.30
2022-12-18T14:43:40.768Z,15.70
2022-12-18T14:45:43.535Z,17.90
2022-12-18T14:47:17.627Z,18.40
2022-12-18T14:48:51.837Z,18.30
2022-12-18T14:50:24.856Z,19.10
2022-12-18T14:52:30.797Z,19.10
2022-12-18T14:54:18.163Z,21.40
2022-12-18T14:55:51.430Z,21.10
2022-12-18T14:57:39.403Z,19.90
2022-12-18T14:59:25.303Z,17.30
2022-12-18T15:00:57.546Z,19.50
2022-12-18T15:02:30.341Z,20.70
2022-12-18T15:04:08.892Z,18.90
2022-12-18T15:05:42.503Z,21.90
2022-12-18T15:07:24.276Z,19.10
2022-12-18T15:08:59.033Z,21.30
2022-12-18T15:10:47.989Z,20.30
2022-12-18T15:12:36.282Z,22.60
2022-12-18T15:14:42.805Z,22.50
2022-12-18T15:16:14.970Z,20.50
2022-12-18T15:17:47.362Z,20.30
2022-12-18T15:19:22.684Z,20.20
2022-12-18T15:21:03.714Z,20.70
2022-12-18T15:22:38.145Z,18.90
2022-12-18T15:24:32.882Z,24.70
2022-12-18T15:26:15.722Z,19.90
2022-12-18T15:27:49.841Z,20.80
2022-12-18T15:29:27.589Z,20.90
2022-12-18T15:31:32.152Z,21.60
2022-12-18T15:33:28.292Z,23.70
2022-12-18T15:35:13.658Z,16.40
2022-12-18T15:36:45.930Z,16.70
2022-12-18T15:38:18.615Z,17.70
2022-12-18T15:39:51.865Z,18.50
2022-12-18T15:41:26.106Z,18.10
2022-12-18T15:43:17.005Z,17.90
2022-12-18T15:44:50.455Z,17.10
2022-12-18T15:46:27.052Z,14.30
2022-12-18T15:48:04.693Z,13.10
2022-12-18T15:49:36.999Z,15.20
2022-12-18T15:51:28.719Z,14.10
2022-12-18T15:53:02.021Z,15.30
2022-12-18T15:55:03.456Z,17.20
2022-12-18T15:56:54.225Z,20.30
2022-12-18T15:58:27.314Z,19.00
2022-12-18T15:59:59.569Z,20.60
2022-12-18T16:01:32.898Z,18.30
2022-12-18T16:03:06.274Z,16.40
2022-12-18T16:04:38.529Z,16.40
2022-12-18T16:06:12.125Z,17.10
2022-12-18T16:07:45.793Z,15.70
2022-12-18T16:09:21.757Z,17.70
2022-12-18T16:10:59.424Z,17.60
2022-12-18T16:12:32.170Z,18.60
2022-12-18T16:14:25.103Z,13.10
2022-12-18T16:15:57.305Z,16.30
2022-12-18T16:17:29.412Z,16.20
2022-12-18T16:19:02.080Z,16.00
2022-12-18T16:20:35.761Z,18.20
2022-12-18T16:22:23.458Z,17.60
2022-12-18T16:23:55.396Z,15.60
2022-12-18T16:25:30.135Z,14.60
2022-12-18T16:27:02.068Z,14.90
2022-12-18T16:28:33.980Z,17.10
2022-12-18T16:30:07.153Z,17.90
2022-12-18T16:31:39.373Z,25.10
2022-12-18T16:33:14.703Z,15.20
2022-12-18T16:34:48.915Z,17.10
2022-12-18T16:36:20.852Z,16.80
2022-12-18T16:37:53.334Z,18.40
2022-12-18T16:39:29.145Z,15.80
2022-12-18T16:41:19.734Z,19.30
2022-12-18T16:42:51.942Z,16.70
2022-12-18T16:44:26.411Z,15.50
2022-12-18T16:46:00.556Z,16.60
2022-12-18T16:47:33.306Z,19.30
2022-12-18T16:49:05.783Z,18.10
2022-12-18T16:50:37.615Z,17.50
2022-12-18T16:52:09.671Z,17.20
2022-12-18T16:53:42.972Z,18.70
2022-12-18T16:55:18.770Z,19.90
2022-12-18T16:56:52.271Z,18.10
2022-12-18T16:58:24.246Z,23.00
2022-12-18T17:00:01.325Z,21.40
2022-12-18T17:01:36.565Z,19.90
2022-12-18T17:03:09.073Z,19.70
2022-12-18T17:04:42.086Z,20.00
2022-12-18T17:06:15.347Z,20.10
2022-12-18T17:07:48.690Z,21.00
2022-12-18T17:09:25.611Z,19.80
2022-12-18T17:11:03.607Z,17.00
2022-12-18T17:12:37.367Z,16.90
2022-12-18T17:14:42.385Z,16.80
2022-12-18T17:16:14.977Z,19.20
2022-12-18T17:17:50.500Z,15.70
2022-12-18T17:19:24.075Z,20.90
2022-12-18T17:21:01.274Z,19.00
2022-12-18T17:22:33.226Z,19.70
2022-12-18T17:24:08.261Z,19.00
2022-12-18T17:25:41.042Z,18.90
2022-12-18T17:27:13.168Z,19.90
2022-12-18T17:28:45.122Z,21.00
2022-12-18T17:30:17.194Z,17.70
2022-12-18T17:31:49.719Z,25.80
2022-12-18T17:33:25.330Z,20.50
2022-12-18T17:34:57.287Z,21.00
2022-12-18T17:36:32.098Z,21.90
2022-12-18T17:38:06.081Z,20.50
2022-12-18T17:39:38.449Z,17.50
2022-12-18T17:41:12.149Z,22.70
2022-12-18T17:42:45.553Z,17.20
2022-12-18T17:44:18.312Z,18.70
2022-12-18T17:45:50.671Z,20.80
2022-12-18T17:47:22.526Z,15.90
2022-12-18T17:48:56.697Z,21.10
2022-12-18T17:50:34.527Z,20.90
2022-12-18T17:52:07.865Z,20.50
2022-12-18T17:53:40.352Z,20.90
2022-12-18T17:55:13.211Z,24.10
2022-12-18T17:56:46.170Z,19.70
2022-12-18T17:58:18.309Z,27.20
2022-12-18T17:59:51.082Z,20.20
2022-12-18T18:01:25.594Z,19.20
2022-12-18T18:02:57.908Z,23.50
2022-12-18T18:04:31.146Z,23.50
2022-12-18T18:06:03.982Z,21.20
2022-12-18T18:07:35.985Z,22.70
2022-12-18T18:09:11.779Z,27.00
2022-12-18T18:10:51.905Z,21.40
2022-12-18T18:12:42.420Z,20.50
2022-12-18T18:14:21.391Z,25.10
2022-12-18T18:15:59.500Z,24.10
2022-12-18T18:17:31.472Z,20.80
2022-12-18T18:19:12.473Z,23.20
2022-12-18T18:20:46.518Z,35.50
2022-12-18T18:22:20.340Z,29.00
2022-12-18T18:23:52.422Z,30.00
2022-12-18T18:25:25.044Z,29.10
2022-12-18T18:27:00.065Z,23.90
2022-12-18T18:28:33.448Z,22.70
2022-12-18T18:30:06.997Z,25.80
2022-12-18T18:31:40.692Z,18.80
2022-12-18T18:33:13.349Z,17.60
2022-12-18T18:34:45.365Z,22.40
2022-12-18T18:36:17.415Z,23.60
2022-12-18T18:37:49.540Z,22.30
2022-12-18T18:39:23.831Z,22.60
2022-12-18T18:41:02.815Z,18.20
2022-12-18T18:42:34.822Z,23.50
2022-12-18T18:44:07.850Z,22.50
2022-12-18T18:45:39.809Z,27.20
2022-12-18T18:47:14.209Z,23.00
2022-12-18T18:48:46.136Z,20.20
2022-12-18T18:50:18.225Z,21.40
2022-12-18T18:51:58.262Z,26.10
2022-12-18T18:53:31.260Z,29.50
2022-12-18T18:55:13.211Z,23.50
2022-12-18T18:57:18.951Z,24.10
2022-12-18T18:58:38.432Z,30.60
2022-12-18T19:00:12.281Z,27.50
2022-12-18T19:01:44.793Z,21.80
2022-12-18T19:03:20.640Z,23.60
2022-12-18T19:04:54.334Z,23.20
2022-12-18T19:06:28.572Z,18.60
2022-12-18T19:08:02.260Z,26.70
2022-12-18T19:09:36.370Z,28.90
2022-12-18T19:11:33.144Z,26.50
2022-12-18T19:13:22.378Z,30.60
2022-12-18T19:14:55.389Z,32.90
2022-12-18T19:16:28.554Z,30.70
2022-12-18T19:18:00.845Z,25.00
2022-12-18T19:19:33.095Z,30.90
2022-12-18T19:21:07.708Z,44.40
2022-12-18T19:22:39.539Z,35.90
2022-12-18T19:24:12.724Z,28.00
2022-12-18T19:25:44.976Z,34.10
2022-12-18T19:27:17.375Z,33.30
2022-12-18T19:28:49.343Z,27.10
2022-12-18T19:30:21.349Z,28.80
2022-12-18T19:31:53.491Z,31.10
2022-12-18T19:33:42.468Z,32.60
2022-12-18T19:35:15.744Z,30.60
2022-12-18T19:36:49.457Z,29.20
2022-12-18T19:38:24.688Z,28.30
2022-12-18T19:39:56.773Z,26.80
2022-12-18T19:41:31.396Z,26.60
2022-12-18T19:43:05.936Z,32.60
2022-12-18T19:44:38.317Z,28.90
2022-12-18T19:46:16.138Z,26.70
2022-12-18T19:47:48.416Z,20.10
2022-12-18T19:49:21.601Z,26.40
2022-12-18T19:50:54.325Z,28.60
2022-12-18T19:52:26.259Z,26.40
2022-12-18T19:54:01.728Z,26.80
2022-12-18T19:55:34.972Z,26.20
2022-12-18T19:57:08.230Z,18.70
2022-12-18T19:58:41.749Z,29.80
2022-12-18T20:00:18.620Z,24.80
2022-12-18T20:01:54.434Z,26.60
2022-12-18T20:03:32.303Z,28.70
2022-12-18T20:05:10.012Z,23.60
2022-12-18T20:06:54.292Z,26.50
2022-12-18T20:08:26.477Z,20.90
2022-12-18T20:10:02.715Z,27.20
2022-12-18T20:11:41.790Z,21.40
2022-12-18T20:13:16.241Z,25.10
2022-12-18T20:14:48.238Z,25.20
2022-12-18T20:16:20.728Z,25.50
2022-12-18T20:17:53.746Z,24.70
2022-12-18T20:19:28.467Z,26.80
2022-12-18T20:21:08.313Z,24.70
2022-12-18T20:22:44.448Z,26.50
2022-12-18T20:24:17.771Z,18.80
2022-12-18T20:25:52.865Z,25.40
2022-12-18T20:27:25.722Z,25.90
2022-12-18T20:28:58.680Z,24.30
2022-12-18T20:30:32.062Z,28.30
2022-12-18T20:32:05.678Z,26.20
2022-12-18T20:33:38.497Z,22.80
2022-12-18T20:35:10.748Z,31.60
2022-12-18T20:36:43.292Z,26.80
2022-12-18T20:38:16.861Z,26.10
2022-12-18T20:39:52.183Z,24.10
2022-12-18T20:41:35.048Z,30.70
2022-12-18T20:43:16.818Z,22.00
2022-12-18T20:44:51.184Z,28.80
2022-12-18T20:46:23.646Z,19.90
2022-12-18T20:47:55.910Z,22.30
2022-12-18T20:49:28.328Z,24.10
2022-12-18T20:51:05.679Z,22.80
2022-12-18T20:52:38.117Z,23.80
2022-12-18T20:54:11.905Z,23.80
2022-12-18T20:55:44.771Z,18.10
2022-12-18T20:57:17.155Z,24.50
2022-12-18T20:58:53.975Z,16.10
2022-12-18T21:00:29.263Z,26.70
2022-12-18T21:02:01.933Z,26.00
2022-12-18T21:03:36.760Z,21.30
2022-12-18T21:05:09.103Z,23.80
2022-12-18T21:06:43.817Z,23.10
2022-12-18T21:08:18.796Z,26.30
2022-12-18T21:09:52.685Z,27.20
2022-12-18T21:11:50.051Z,25.60
2022-12-18T21:13:22.739Z,27.20
2022-12-18T21:14:54.821Z,25.90
2022-12-18T21:16:26.786Z,23.90
2022-12-18T21:17:58.805Z,27.20
2022-12-18T21:19:32.467Z,25.30
2022-12-18T21:21:05.229Z,26.20
2022-12-18T21:22:37.498Z,24.40
2022-12-18T21:24:10.049Z,16.70